createdAt,value
2019-05-30T00:03:37.310Z,10.10
2019-05-30T00:09:40.526Z,9.90
2019-05-30T00:15:42.052Z,9.90
2019-05-30T00:21:43.555Z,9.80
2019-05-30T00:27:45.079Z,9.80
2019-05-30T00:33:46.652Z,9.90
2019-05-30T00:39:48.328Z,9.80
2019-05-30T00:45:49.957Z,9.70
2019-05-30T00:51:52.583Z,9.60
2019-05-30T00:57:55.112Z,9.60
2019-05-30T01:03:58.691Z,9.60
2019-05-30T01:10:00.961Z,9.50
2019-05-30T01:16:03.217Z,9.30
2019-05-30T01:22:05.540Z,9.40
2019-05-30T01:28:07.897Z,9.40
2019-05-30T01:34:09.582Z,9.50
2019-05-30T01:40:11.351Z,9.50
2019-05-30T01:46:13.023Z,9.50
2019-05-30T01:52:14.627Z,9.60
2019-05-30T01:58:16.218Z,9.50
2019-05-30T02:04:18.759Z,9.50
2019-05-30T02:10:20.389Z,9.60
2019-05-30T02:16:21.869Z,9.50
2019-05-30T02:22:23.566Z,9.50
2019-05-30T02:28:25.142Z,9.50
2019-05-30T02:34:26.655Z,9.60
2019-05-30T02:40:28.337Z,9.40
2019-05-30T02:46:29.837Z,9.30
2019-05-30T02:52:31.463Z,9.40
2019-05-30T02:58:33.149Z,9.40
2019-05-30T03:04:34.757Z,9.20
2019-05-30T03:10:36.459Z,9.20
2019-05-30T03:16:38.028Z,9.30
2019-05-30T03:22:39.686Z,9.30
2019-05-30T03:28:41.460Z,9.30
2019-05-30T03:34:43.275Z,9.50
2019-05-30T03:40:44.952Z,9.50
2019-05-30T03:46:50.282Z,9.50
2019-05-30T03:52:53.274Z,9.50
2019-05-30T03:59:05.789Z,9.40
2019-05-30T04:05:16.002Z,9.30
2019-05-30T04:11:21.079Z,9.30
2019-05-30T04:17:22.700Z,9.50
2019-05-30T04:23:24.163Z,9.70
2019-05-30T04:29:28.395Z,10.00
2019-05-30T04:35:30.110Z,10.20
2019-05-30T04:41:31.628Z,10.40
2019-05-30T04:47:33.414Z,10.40
2019-05-30T04:53:34.904Z,10.40
2019-05-30T04:59:36.382Z,10.60
2019-05-30T05:05:38.106Z,10.90
2019-05-30T05:11:39.591Z,10.90
2019-05-30T05:17:41.233Z,11.10
2019-05-30T05:23:42.738Z,11.30
2019-05-30T05:29:44.302Z,11.60
2019-05-30T05:35:45.864Z,11.90
2019-05-30T05:41:47.401Z,12.00
2019-05-30T05:47:49.025Z,12.30
2019-05-30T05:53:50.605Z,12.50
2019-05-30T05:59:52.107Z,12.90
2019-05-30T06:05:53.828Z,13.30
2019-05-30T06:11:55.332Z,14.10
2019-05-30T06:17:57.918Z,15.20
2019-05-30T06:23:59.420Z,14.80
2019-05-30T06:30:01.140Z,14.90
2019-05-30T06:36:02.832Z,15.10
2019-05-30T06:42:05.463Z,15.10
2019-05-30T06:48:07.033Z,15.50
2019-05-30T06:54:13.628Z,16.00
2019-05-30T07:00:15.850Z,16.00
2019-05-30T07:06:17.574Z,16.10
2019-05-30T07:12:19.397Z,16.30
2019-05-30T07:18:21.033Z,16.00
2019-05-30T07:24:23.671Z,16.00
2019-05-30T07:30:27.837Z,16.10
2019-05-30T07:36:32.322Z,16.60
2019-05-30T07:42:34.959Z,17.00
2019-05-30T07:48:39.470Z,17.20
2019-05-30T07:54:41.201Z,18.10
2019-05-30T08:00:42.710Z,18.70
2019-05-30T08:06:44.212Z,19.10
2019-05-30T08:12:46.066Z,19.10
2019-05-30T08:18:47.572Z,19.80
2019-05-30T08:24:49.099Z,20.50
2019-05-30T08:30:50.713Z,20.40
2019-05-30T08:36:52.211Z,20.90
2019-05-30T08:42:53.868Z,21.20
2019-05-30T08:48:55.513Z,21.40
2019-05-30T08:54:57.108Z,21.70
2019-05-30T09:00:58.794Z,22.10
2019-05-30T09:07:00.247Z,21.90
2019-05-30T09:13:02.950Z,20.90
2019-05-30T09:19:04.659Z,21.10
2019-05-30T09:25:11.613Z,21.70
2019-05-30T09:31:13.138Z,21.30
2019-05-30T09:37:14.762Z,20.40
2019-05-30T09:43:16.420Z,20.20
2019-05-30T09:49:17.920Z,20.50
2019-05-30T09:55:20.987Z,20.80
2019-05-30T10:01:22.800Z,21.00
2019-05-30T10:07:24.295Z,21.10
2019-05-30T10:13:25.889Z,20.80
2019-05-30T10:19:28.493Z,20.80
2019-05-30T10:25:30.100Z,21.00
2019-05-30T10:31:33.296Z,21.10
2019-05-30T10:37:35.068Z,21.40
2019-05-30T10:43:36.548Z,21.20
2019-05-30T10:49:38.163Z,20.60
2019-05-30T10:55:39.667Z,20.60
2019-05-30T11:01:41.378Z,20.40
2019-05-30T11:08:03.829Z,20.80
2019-05-30T11:14:02.197Z,20.80
2019-05-30T11:20:05.013Z,21.10
2019-05-30T11:26:06.593Z,21.10
2019-05-30T11:32:08.166Z,21.20
2019-05-30T11:38:09.835Z,21.00
2019-05-30T11:44:11.282Z,20.40
2019-05-30T11:50:13.353Z,19.90
2019-05-30T11:56:16.776Z,19.60
2019-05-30T12:02:18.295Z,19.40
2019-05-30T12:08:19.816Z,19.50
2019-05-30T12:14:21.610Z,19.50
2019-05-30T12:20:23.466Z,19.40
2019-05-30T12:26:25.037Z,19.40
2019-05-30T12:32:26.599Z,19.70
2019-05-30T12:38:28.519Z,19.60
2019-05-30T12:44:30.620Z,19.20
2019-05-30T12:50:32.319Z,19.00
2019-05-30T12:56:34.040Z,18.70
2019-05-30T13:02:35.532Z,19.10
2019-05-30T13:08:37.388Z,19.30
2019-05-30T13:14:38.914Z,20.00
2019-05-30T13:20:40.542Z,20.90
2019-05-30T13:26:42.127Z,21.20
2019-05-30T13:32:43.745Z,21.20
2019-05-30T13:38:46.774Z,21.30
2019-05-30T13:44:48.315Z,21.80
2019-05-30T13:50:50.123Z,22.10
2019-05-30T13:56:51.978Z,22.20
2019-05-30T14:02:53.616Z,21.60
2019-05-30T14:08:55.259Z,21.10
2019-05-30T14:14:57.022Z,21.10
2019-05-30T14:20:58.919Z,21.00
2019-05-30T14:27:01.406Z,20.60
2019-05-30T14:33:06.115Z,20.60
2019-05-30T14:39:07.321Z,20.60
2019-05-30T14:45:12.529Z,20.60
2019-05-30T14:51:14.447Z,20.60
2019-05-30T14:57:17.182Z,20.60
2019-05-30T15:03:18.788Z,20.50
2019-05-30T15:09:25.746Z,20.40
2019-05-30T15:15:24.043Z,20.30
2019-05-30T15:21:25.551Z,20.10
2019-05-30T15:27:27.161Z,20.00
2019-05-30T15:33:28.802Z,19.80
2019-05-30T15:39:32.833Z,19.70
2019-05-30T15:45:33.758Z,19.70
2019-05-30T15:51:35.390Z,19.50
2019-05-30T15:57:36.978Z,19.50
2019-05-30T16:03:38.635Z,19.60
2019-05-30T16:09:47.185Z,19.50
2019-05-30T16:15:44.387Z,19.40
2019-05-30T16:21:46.211Z,19.30
2019-05-30T16:27:47.732Z,19.50
2019-05-30T16:33:49.532Z,19.70
2019-05-30T16:40:05.082Z,19.90
2019-05-30T16:45:54.468Z,20.20
2019-05-30T16:51:56.124Z,20.20
2019-05-30T16:57:57.801Z,20.30
2019-05-30T17:03:59.492Z,20.30
2019-05-30T17:10:01.196Z,20.60
2019-05-30T17:16:04.039Z,20.70
2019-05-30T17:22:05.595Z,20.70
2019-05-30T17:28:07.225Z,20.60
2019-05-30T17:34:09.570Z,20.20
2019-05-30T17:40:12.163Z,20.10
2019-05-30T17:46:13.703Z,19.90
2019-05-30T17:52:15.405Z,20.00
2019-05-30T17:58:16.881Z,20.20
2019-05-30T18:04:18.562Z,20.30
2019-05-30T18:10:20.757Z,20.20
2019-05-30T18:16:23.050Z,20.00
2019-05-30T18:22:25.528Z,19.80
2019-05-30T18:28:27.801Z,19.60
2019-05-30T18:34:30.435Z,19.40
2019-05-30T18:40:33.983Z,19.30
2019-05-30T18:46:38.542Z,19.10
2019-05-30T18:52:38.897Z,19.00
2019-05-30T18:58:40.666Z,18.80
2019-05-30T19:04:42.308Z,18.60
2019-05-30T19:10:47.062Z,18.30
2019-05-30T19:16:48.667Z,18.10
2019-05-30T19:22:50.158Z,17.90
2019-05-30T19:28:51.817Z,17.60
2019-05-30T19:34:53.429Z,17.30
2019-05-30T19:40:54.899Z,17.10
2019-05-30T19:46:56.389Z,16.90
2019-05-30T19:52:58.026Z,16.80
2019-05-30T19:58:59.572Z,16.80
2019-05-30T20:05:04.879Z,16.80
2019-05-30T20:11:08.104Z,16.80
2019-05-30T20:17:12.586Z,16.90
2019-05-30T20:23:14.313Z,16.90
2019-05-30T20:29:16.169Z,16.90
2019-05-30T20:35:17.782Z,16.90
2019-05-30T20:41:19.404Z,16.80
2019-05-30T20:47:21.041Z,16.90
2019-05-30T20:53:23.601Z,16.80
2019-05-30T20:59:25.222Z,16.60
2019-05-30T21:05:26.866Z,16.50
2019-05-30T21:11:29.138Z,16.30
2019-05-30T21:17:33.752Z,16.10
2019-05-30T21:23:36.276Z,15.90
2019-05-30T21:29:38.873Z,15.70
2019-05-30T21:35:41.817Z,15.40
2019-05-30T21:41:44.559Z,15.10
2019-05-30T21:47:46.866Z,15.00
2019-05-30T21:53:49.645Z,14.90
2019-05-30T21:59:51.347Z,14.60
2019-05-30T22:05:52.950Z,14.40
2019-05-30T22:11:54.604Z,14.20
2019-05-30T22:17:56.224Z,14.00
2019-05-30T22:23:57.961Z,14.00
2019-05-30T22:29:59.532Z,14.30
2019-05-30T22:36:01.103Z,14.60
2019-05-30T22:42:02.909Z,14.70
2019-05-30T22:48:04.519Z,14.80
2019-05-30T22:54:06.035Z,14.80
2019-05-30T23:00:07.932Z,14.70
2019-05-30T23:06:10.062Z,14.60
2019-05-30T23:12:11.667Z,14.40
2019-05-30T23:18:13.183Z,14.20
2019-05-30T23:24:14.701Z,14.10
2019-05-30T23:30:16.581Z,13.90
2019-05-30T23:36:18.216Z,13.80
2019-05-30T23:42:19.761Z,13.70
2019-05-30T23:48:21.285Z,13.60
2019-05-30T23:54:22.841Z,13.50
